aviador You're here:

LJCE Decoded Metar

CERKLJE in SLOVENIA
Report Time2017-09-22 15:00:00
UTC Time2017-09-22 15:23:06
Flight Rules vfr VFR
WindVRB at 01 kt
Visibility9999 m
Phenomena:N/A
Clouds:N/A
Expected CloudBase > 5,600 ft AGL from Temp-Dew spread
CeilingNone
Temp21°C (ISA +7)
Dew Point07°C (40% RH)
AAT19.9°C
QNH1020 hPa
Density Alt1,230 ft
Elevation508 ft
Report Wrong Elevation
Raw Report
METAR LJCE 221500Z AUTO VRB01KT 9999 NSC 21/07 Q1020=

Extra information for LJCE:More info

Metar Taf Metar & Taf Last 4 Metars F.Rules Stats Wind Profile Meteogram Temp Stats Airport Information Weather charts Add Link Nearby VenuesMetar ALERT Operation Metar Decoded Social comments